createdAt,value
2023-03-07T00:02:17.521Z,97343.94
2023-03-07T00:04:46.213Z,97342.53
2023-03-07T00:07:13.307Z,97335.66
2023-03-07T00:09:39.949Z,97338.06
2023-03-07T00:12:08.478Z,97333.47
2023-03-07T00:14:35.450Z,97337.31
2023-03-07T00:17:02.166Z,97335.09
2023-03-07T00:19:28.918Z,97337.09
2023-03-07T00:21:55.524Z,97331.88
2023-03-07T00:24:22.133Z,97334.91
2023-03-07T00:26:48.693Z,97328.25
2023-03-07T00:29:15.307Z,97327.25
2023-03-07T00:31:41.997Z,97321.63
2023-03-07T00:34:08.847Z,97322.84
2023-03-07T00:36:38.677Z,97331.06
2023-03-07T00:39:05.360Z,97312.56
2023-03-07T00:41:31.927Z,97316.97
2023-03-07T00:43:58.514Z,97311.75
2023-03-07T00:46:26.013Z,97305.72
2023-03-07T00:48:53.297Z,97300.06
2023-03-07T00:51:21.310Z,97299.28
2023-03-07T00:53:48.672Z,97299.66
2023-03-07T00:56:18.878Z,97304.91
2023-03-07T00:58:46.942Z,97299.88
2023-03-07T01:01:17.129Z,97298.66
2023-03-07T01:03:44.504Z,97280.16
2023-03-07T01:06:15.526Z,97290.63
2023-03-07T01:08:42.534Z,97288.63
2023-03-07T01:11:10.637Z,97287.63
2023-03-07T01:13:37.822Z,97278.97
2023-03-07T01:16:16.672Z,97286.59
2023-03-07T01:18:44.613Z,97284.59
2023-03-07T01:21:14.232Z,97294.84
2023-03-07T01:23:40.852Z,97279.38
2023-03-07T01:26:07.529Z,97275.16
2023-03-07T01:28:34.157Z,97273.94
2023-03-07T01:31:01.040Z,97269.91
2023-03-07T01:33:27.658Z,97265.88
2023-03-07T01:35:54.434Z,97269.72
2023-03-07T01:38:21.073Z,97256.22
2023-03-07T01:40:47.697Z,97267.91
2023-03-07T01:43:24.684Z,97256.06
2023-03-07T01:45:51.487Z,97257.47
2023-03-07T01:48:18.249Z,97252.81
2023-03-07T01:50:44.982Z,97251.81
2023-03-07T01:53:11.885Z,97246.97
2023-03-07T01:55:38.862Z,97253.59
2023-03-07T01:58:10.818Z,97244.34
2023-03-07T02:00:38.837Z,97238.53
2023-03-07T02:03:11.252Z,97226.06
2023-03-07T02:05:47.601Z,97238.53
2023-03-07T02:08:16.590Z,97222.88
2023-03-07T02:10:43.492Z,97223.66
2023-03-07T02:13:10.599Z,97219.44
2023-03-07T02:15:37.592Z,97215.44
2023-03-07T02:18:05.846Z,97209.19
2023-03-07T02:20:36.796Z,97208.97
2023-03-07T02:23:04.787Z,97205.34
2023-03-07T02:26:03.322Z,97202.75
2023-03-07T02:28:30.514Z,97203.56
2023-03-07T02:31:00.332Z,97201.13
2023-03-07T02:33:27.328Z,97204.78
2023-03-07T02:35:59.866Z,97197.94
2023-03-07T02:38:26.591Z,97200.34
2023-03-07T02:40:55.517Z,97206.56
2023-03-07T02:43:22.982Z,97202.94
2023-03-07T02:45:49.980Z,97199.53
2023-03-07T02:48:16.729Z,97203.94
2023-03-07T02:50:43.310Z,97208.97
2023-03-07T02:53:09.936Z,97203.38
2023-03-07T02:55:36.497Z,97202.75
2023-03-07T02:58:03.084Z,97211.78
2023-03-07T03:00:30.245Z,97206.34
2023-03-07T03:02:56.864Z,97195.53
2023-03-07T03:05:23.520Z,97196.72
2023-03-07T03:07:50.177Z,97204.78
2023-03-07T03:10:17.379Z,97198.53
2023-03-07T03:12:44.529Z,97211.97
2023-03-07T03:15:12.133Z,97197.09
2023-03-07T03:17:39.359Z,97192.50
2023-03-07T03:20:11.694Z,97201.13
2023-03-07T03:22:40.646Z,97193.09
2023-03-07T03:25:10.007Z,97190.69
2023-03-07T03:27:38.181Z,97189.09
2023-03-07T03:30:06.791Z,97183.88
2023-03-07T03:32:33.677Z,97182.03
2023-03-07T03:35:00.495Z,97182.84
2023-03-07T03:37:27.257Z,97181.44
2023-03-07T03:39:54.470Z,97178.81
2023-03-07T03:42:21.085Z,97183.25
2023-03-07T03:44:47.706Z,97183.44
2023-03-07T03:47:14.322Z,97190.28
2023-03-07T03:49:41.256Z,97185.25
2023-03-07T03:52:08.040Z,97184.03
2023-03-07T03:54:34.891Z,97189.25
2023-03-07T03:57:01.503Z,97191.88
2023-03-07T03:59:28.138Z,97183.25
2023-03-07T04:01:55.337Z,97179.03
2023-03-07T04:04:22.760Z,97177.81
2023-03-07T04:06:49.389Z,97177.59
2023-03-07T04:09:15.977Z,97180.63
2023-03-07T04:11:42.543Z,97176.19
2023-03-07T04:14:09.146Z,97176.41
2023-03-07T04:16:35.787Z,97173.78
2023-03-07T04:19:02.802Z,97175.41
2023-03-07T04:21:29.424Z,97174.63
2023-03-07T04:23:58.332Z,97182.25
2023-03-07T04:26:24.982Z,97178.59
2023-03-07T04:28:51.629Z,97184.63
2023-03-07T04:31:23.825Z,97176.00
2023-03-07T04:33:55.616Z,97183.44
2023-03-07T04:36:23.386Z,97178.00
2023-03-07T04:38:53.600Z,97179.78
2023-03-07T04:41:23.533Z,97173.56
2023-03-07T04:43:50.175Z,97163.75
2023-03-07T04:46:18.650Z,97169.34
2023-03-07T04:48:46.301Z,97167.56
2023-03-07T04:51:13.496Z,97169.97
2023-03-07T04:53:40.203Z,97168.56
2023-03-07T04:56:08.436Z,97164.94
2023-03-07T04:58:35.565Z,97171.97
2023-03-07T05:01:03.685Z,97177.00
2023-03-07T05:03:30.788Z,97169.16
2023-03-07T05:06:02.704Z,97170.16
2023-03-07T05:08:29.639Z,97169.75
2023-03-07T05:10:57.921Z,97167.34
2023-03-07T05:13:24.601Z,97174.41
2023-03-07T05:15:53.186Z,97175.19
2023-03-07T05:18:20.181Z,97167.75
2023-03-07T05:20:47.443Z,97169.53
2023-03-07T05:23:14.172Z,97172.16
2023-03-07T05:25:43.174Z,97165.53
2023-03-07T05:28:10.636Z,97176.78
2023-03-07T05:30:37.241Z,97161.72
2023-03-07T05:33:03.903Z,97170.16
2023-03-07T05:35:30.731Z,97167.34
2023-03-07T05:37:57.348Z,97175.78
2023-03-07T05:40:24.731Z,97158.91
2023-03-07T05:42:51.448Z,97163.75
2023-03-07T05:45:18.179Z,97167.34
2023-03-07T05:47:44.789Z,97170.38
2023-03-07T05:50:11.819Z,97172.56
2023-03-07T05:52:38.512Z,97174.56
2023-03-07T05:55:05.699Z,97172.97
2023-03-07T05:57:32.612Z,97172.16
2023-03-07T05:59:59.217Z,97178.19
2023-03-07T06:02:25.882Z,97179.00
2023-03-07T06:04:52.482Z,97172.34
2023-03-07T06:07:19.124Z,97173.56
2023-03-07T06:09:45.743Z,97176.38
2023-03-07T06:12:12.331Z,97172.56
2023-03-07T06:14:38.925Z,97180.59
2023-03-07T06:17:05.978Z,97183.78
2023-03-07T06:19:32.678Z,97185.63
2023-03-07T06:21:59.504Z,97180.41
2023-03-07T06:24:26.059Z,97180.19
2023-03-07T06:26:52.778Z,97182.41
2023-03-07T06:29:19.368Z,97176.19
2023-03-07T06:31:46.007Z,97183.81
2023-03-07T06:34:12.987Z,97177.41
2023-03-07T06:36:40.367Z,97168.34
2023-03-07T06:39:07.549Z,97172.00
2023-03-07T06:41:34.180Z,97173.22
2023-03-07T06:44:00.856Z,97190.28
2023-03-07T06:46:27.675Z,97185.66
2023-03-07T06:48:55.220Z,97181.84
2023-03-07T06:51:22.117Z,97188.47
2023-03-07T06:53:48.678Z,97183.03
2023-03-07T06:56:15.533Z,97177.41
2023-03-07T06:58:42.109Z,97183.25
2023-03-07T07:01:15.928Z,97187.88
2023-03-07T07:03:42.576Z,97182.25
2023-03-07T07:06:09.201Z,97180.06
2023-03-07T07:08:35.886Z,97190.50
2023-03-07T07:11:02.473Z,97195.72
2023-03-07T07:13:29.118Z,97191.50
2023-03-07T07:15:55.745Z,97193.31
2023-03-07T07:18:22.379Z,97192.91
2023-03-07T07:20:56.542Z,97190.69
2023-03-07T07:23:23.249Z,97192.69
2023-03-07T07:25:49.827Z,97192.88
2023-03-07T07:28:16.423Z,97187.63
2023-03-07T07:30:43.414Z,97194.28
2023-03-07T07:33:10.088Z,97188.25
2023-03-07T07:35:36.995Z,97186.00
2023-03-07T07:38:03.878Z,97185.41
2023-03-07T07:40:30.748Z,97191.44
2023-03-07T07:42:57.422Z,97183.19
2023-03-07T07:45:24.404Z,97181.16
2023-03-07T07:47:52.005Z,97191.81
2023-03-07T07:50:20.392Z,97189.41
2023-03-07T07:52:47.723Z,97186.97
2023-03-07T07:55:14.931Z,97187.16
2023-03-07T07:57:42.379Z,97194.34
2023-03-07T08:00:11.692Z,97181.56
2023-03-07T08:02:38.863Z,97188.25
2023-03-07T08:05:07.993Z,97186.03
2023-03-07T08:07:34.616Z,97181.16
2023-03-07T08:10:01.176Z,97176.66
2023-03-07T08:12:28.102Z,97182.22
2023-03-07T08:14:54.778Z,97171.94
2023-03-07T08:17:21.355Z,97176.50
2023-03-07T08:19:47.962Z,97172.41
2023-03-07T08:22:14.586Z,97178.78
2023-03-07T08:24:41.300Z,97184.28
2023-03-07T08:27:09.073Z,97185.72
2023-03-07T08:29:35.741Z,97179.81
2023-03-07T08:32:02.451Z,97171.88
2023-03-07T08:34:33.593Z,97175.81
2023-03-07T08:37:00.193Z,97178.53
2023-03-07T08:39:30.035Z,97175.38
2023-03-07T08:41:56.932Z,97170.28
2023-03-07T08:44:23.668Z,97171.59
2023-03-07T08:46:50.219Z,97164.25
2023-03-07T08:49:16.922Z,97169.19
2023-03-07T08:51:43.534Z,97168.00
2023-03-07T08:54:10.122Z,97177.44
2023-03-07T08:56:36.719Z,97167.50
2023-03-07T08:59:03.334Z,97165.91
2023-03-07T09:01:29.971Z,97164.31
2023-03-07T09:03:56.668Z,97159.06
2023-03-07T09:06:24.072Z,97162.75
2023-03-07T09:08:51.000Z,97163.00
2023-03-07T09:11:18.234Z,97164.03
2023-03-07T09:13:51.913Z,97162.22
2023-03-07T09:16:21.091Z,97155.13
2023-03-07T09:18:47.794Z,97159.72
2023-03-07T09:21:14.633Z,97152.09
2023-03-07T09:23:43.316Z,97149.94
2023-03-07T09:26:10.321Z,97149.41
2023-03-07T09:28:36.909Z,97158.88
2023-03-07T09:31:08.839Z,97154.53
2023-03-07T09:33:35.545Z,97150.31
2023-03-07T09:36:05.836Z,97152.34
2023-03-07T09:38:32.564Z,97139.78
2023-03-07T09:41:14.606Z,97149.06
2023-03-07T09:43:51.609Z,97148.34
2023-03-07T09:46:28.671Z,97129.47
2023-03-07T09:49:15.120Z,97134.16
2023-03-07T09:51:44.054Z,97135.94
2023-03-07T09:54:16.188Z,97133.97
2023-03-07T09:56:50.271Z,97120.81
2023-03-07T09:59:34.061Z,97117.81
2023-03-07T10:02:06.120Z,97117.66
2023-03-07T10:04:46.974Z,97115.28
2023-03-07T10:07:16.011Z,97106.66
2023-03-07T10:09:45.560Z,97105.38
2023-03-07T10:12:42.582Z,97104.09
2023-03-07T10:15:30.284Z,97103.22
2023-03-07T10:18:10.265Z,97102.69
2023-03-07T10:20:45.086Z,97096.09
2023-03-07T10:23:24.757Z,97091.41
2023-03-07T10:26:15.098Z,97080.25
2023-03-07T10:28:44.648Z,97078.13
2023-03-07T10:31:26.540Z,97071.44
2023-03-07T10:33:54.976Z,97065.28
2023-03-07T10:36:29.477Z,97066.00
2023-03-07T10:39:03.564Z,97061.69
2023-03-07T10:41:30.542Z,97046.81
2023-03-07T10:43:57.753Z,97050.72
2023-03-07T10:46:28.228Z,97050.63
2023-03-07T10:49:03.664Z,97045.16
2023-03-07T10:51:53.307Z,97043.72
2023-03-07T10:54:24.214Z,97040.09
2023-03-07T10:57:02.815Z,97024.03
2023-03-07T10:59:29.434Z,97026.97
2023-03-07T11:01:58.994Z,97030.97
2023-03-07T11:04:28.369Z,97011.38
2023-03-07T11:07:02.446Z,97015.94
2023-03-07T11:09:34.820Z,97005.91
2023-03-07T11:12:20.139Z,97000.44
2023-03-07T11:14:49.462Z,97000.84
2023-03-07T11:17:27.654Z,96990.88
2023-03-07T11:19:56.145Z,96981.75
2023-03-07T11:22:36.660Z,96974.38
2023-03-07T11:25:19.038Z,96975.97
2023-03-07T11:27:45.644Z,96966.69
2023-03-07T11:30:30.469Z,96956.88
2023-03-07T11:33:08.161Z,96962.06
2023-03-07T11:35:49.823Z,96956.25
2023-03-07T11:38:28.327Z,96956.34
2023-03-07T11:41:10.050Z,96937.44
2023-03-07T11:43:52.855Z,96933.00
2023-03-07T11:46:52.454Z,96916.25
2023-03-07T11:49:37.361Z,96918.53
2023-03-07T11:52:20.146Z,96922.72
2023-03-07T11:55:15.573Z,96912.69
2023-03-07T11:58:12.631Z,96896.69
2023-03-07T12:00:52.173Z,96898.88
2023-03-07T12:03:20.747Z,96906.59
2023-03-07T12:06:10.612Z,96890.66
2023-03-07T12:08:51.368Z,96878.53
2023-03-07T12:11:38.910Z,96881.16
2023-03-07T12:14:21.941Z,96870.81
2023-03-07T12:17:03.766Z,96863.09
2023-03-07T12:19:53.912Z,96854.69
2023-03-07T12:22:28.500Z,96850.78
2023-03-07T12:25:09.241Z,96843.38
2023-03-07T12:27:41.821Z,96837.59
2023-03-07T12:30:23.337Z,96830.44
2023-03-07T12:32:51.353Z,96826.72
2023-03-07T12:35:26.797Z,96813.47
2023-03-07T12:38:04.595Z,96804.28
2023-03-07T12:40:44.613Z,96804.28
2023-03-07T12:43:30.152Z,96809.34
2023-03-07T12:46:12.230Z,96795.63
2023-03-07T12:48:47.629Z,96785.88
2023-03-07T12:51:22.249Z,96787.47
2023-03-07T12:53:57.738Z,96781.91
2023-03-07T12:56:34.082Z,96792.25
2023-03-07T12:59:02.637Z,96784.28
2023-03-07T13:01:32.434Z,96779.25
2023-03-07T13:04:26.613Z,96783.47
2023-03-07T13:06:55.932Z,96767.91
2023-03-07T13:09:24.205Z,96767.66
2023-03-07T13:12:24.676Z,96765.78
2023-03-07T13:15:04.801Z,96758.09
2023-03-07T13:17:31.538Z,96758.13
2023-03-07T13:20:14.519Z,96745.38
2023-03-07T13:22:41.062Z,96747.25
2023-03-07T13:25:23.907Z,96745.41
2023-03-07T13:27:54.048Z,96746.44
2023-03-07T13:30:30.124Z,96741.44
2023-03-07T13:33:01.213Z,96735.34
2023-03-07T13:35:28.984Z,96734.28
2023-03-07T13:38:03.668Z,96728.69
2023-03-07T13:40:46.643Z,96737.97
2023-03-07T13:43:28.680Z,96729.75
2023-03-07T13:45:58.494Z,96734.00
2023-03-07T13:48:25.261Z,96724.72
2023-03-07T13:50:51.832Z,96718.91
2023-03-07T13:53:36.507Z,96723.13
2023-03-07T13:56:19.935Z,96714.66
2023-03-07T13:58:53.188Z,96716.50
2023-03-07T14:01:23.662Z,96704.06
2023-03-07T14:03:54.641Z,96706.19
2023-03-07T14:06:32.196Z,96704.09
2023-03-07T14:09:02.568Z,96699.84
2023-03-07T14:11:51.824Z,96693.50
2023-03-07T14:14:49.590Z,96681.84
2023-03-07T14:17:29.386Z,96681.06
2023-03-07T14:20:24.764Z,96686.09
2023-03-07T14:23:06.644Z,96674.69
2023-03-07T14:25:36.489Z,96676.53
2023-03-07T14:28:19.734Z,96674.94
2023-03-07T14:30:58.946Z,96678.09
2023-03-07T14:33:34.751Z,96671.47
2023-03-07T14:36:04.904Z,96668.59
2023-03-07T14:38:32.966Z,96666.72
2023-03-07T14:41:06.827Z,96664.81
2023-03-07T14:43:55.174Z,96663.78
2023-03-07T14:46:26.133Z,96667.75
2023-03-07T14:48:56.998Z,96672.56
2023-03-07T14:51:27.131Z,96660.09
2023-03-07T14:53:55.019Z,96653.22
2023-03-07T14:56:27.356Z,96651.41
2023-03-07T14:58:59.766Z,96648.47
2023-03-07T15:01:32.098Z,96652.16
2023-03-07T15:03:58.900Z,96655.34
2023-03-07T15:06:27.940Z,96652.16
2023-03-07T15:08:57.360Z,96653.78
2023-03-07T15:11:38.141Z,96648.50
2023-03-07T15:14:13.182Z,96651.94
2023-03-07T15:16:44.145Z,96653.03
2023-03-07T15:19:23.019Z,96650.66
2023-03-07T15:21:55.106Z,96653.28
2023-03-07T15:24:30.224Z,96651.41
2023-03-07T15:26:58.332Z,96652.50
2023-03-07T15:29:28.625Z,96646.66
2023-03-07T15:32:03.941Z,96641.91
2023-03-07T15:34:34.356Z,96649.03
2023-03-07T15:37:20.550Z,96640.03
2023-03-07T15:39:55.894Z,96628.91
2023-03-07T15:42:22.826Z,96633.66
2023-03-07T15:44:54.351Z,96627.03
2023-03-07T15:47:21.450Z,96630.47
2023-03-07T15:49:51.075Z,96627.28
2023-03-07T15:52:22.037Z,96634.69
2023-03-07T15:54:52.737Z,96632.53
2023-03-07T15:57:23.351Z,96635.94
2023-03-07T15:59:55.799Z,96634.59
2023-03-07T16:02:39.931Z,96646.25
2023-03-07T16:05:28.764Z,96646.25
2023-03-07T16:07:57.313Z,96656.81
2023-03-07T16:10:28.191Z,96657.34
2023-03-07T16:12:55.559Z,96654.69
2023-03-07T16:15:23.870Z,96662.59
2023-03-07T16:17:55.002Z,96664.16
2023-03-07T16:20:26.930Z,96659.94
2023-03-07T16:22:53.789Z,96673.13
2023-03-07T16:25:22.083Z,96662.28
2023-03-07T16:27:53.268Z,96670.72
2023-03-07T16:30:23.797Z,96670.13
2023-03-07T16:32:50.821Z,96662.47
2023-03-07T16:35:27.503Z,96657.47
2023-03-07T16:37:55.151Z,96667.47
2023-03-07T16:40:22.892Z,96668.47
2023-03-07T16:42:53.687Z,96667.97
2023-03-07T16:45:24.819Z,96670.84
2023-03-07T16:47:53.515Z,96667.16
2023-03-07T16:50:25.584Z,96665.50
2023-03-07T16:52:52.291Z,96668.13
2023-03-07T16:55:19.961Z,96678.94
2023-03-07T16:57:51.161Z,96672.84
2023-03-07T17:00:20.938Z,96677.53
2023-03-07T17:02:48.969Z,96668.31
2023-03-07T17:05:21.198Z,96678.00
2023-03-07T17:07:47.868Z,96675.38
2023-03-07T17:10:15.019Z,96683.50
2023-03-07T17:12:42.593Z,96690.03
2023-03-07T17:15:14.295Z,96682.59
2023-03-07T17:17:41.828Z,96683.00
2023-03-07T17:20:11.969Z,96698.16
2023-03-07T17:22:38.653Z,96704.59
2023-03-07T17:25:05.776Z,96710.75
2023-03-07T17:27:34.948Z,96715.09
2023-03-07T17:30:01.697Z,96723.56
2023-03-07T17:32:28.386Z,96722.09
2023-03-07T17:34:55.023Z,96731.38
2023-03-07T17:37:22.049Z,96725.81
2023-03-07T17:39:48.775Z,96740.81
2023-03-07T17:42:15.412Z,96738.81
2023-03-07T17:44:42.096Z,96740.75
2023-03-07T17:47:08.777Z,96734.28
2023-03-07T17:49:38.121Z,96740.97
2023-03-07T17:52:06.269Z,96751.16
2023-03-07T17:54:33.341Z,96754.00
2023-03-07T17:57:00.933Z,96754.97
2023-03-07T17:59:27.646Z,96760.13
2023-03-07T18:01:54.415Z,96759.91
2023-03-07T18:04:21.051Z,96755.25
2023-03-07T18:06:48.096Z,96756.25
2023-03-07T18:09:15.384Z,96760.63
2023-03-07T18:11:42.120Z,96758.22
2023-03-07T18:14:08.739Z,96769.69
2023-03-07T18:16:35.325Z,96769.34
2023-03-07T18:19:04.773Z,96779.63
2023-03-07T18:21:32.288Z,96771.19
2023-03-07T18:23:58.890Z,96776.72
2023-03-07T18:26:25.913Z,96783.22
2023-03-07T18:28:54.181Z,96782.84
2023-03-07T18:31:25.228Z,96792.47
2023-03-07T18:33:53.055Z,96785.84
2023-03-07T18:36:21.589Z,96784.25
2023-03-07T18:38:49.013Z,96780.47
2023-03-07T18:41:19.273Z,96787.47
2023-03-07T18:43:46.131Z,96795.75
2023-03-07T18:46:16.564Z,96801.47
2023-03-07T18:48:43.326Z,96804.00
2023-03-07T18:51:13.307Z,96803.41
2023-03-07T18:53:40.805Z,96812.19
2023-03-07T18:56:12.928Z,96813.19
2023-03-07T18:58:40.511Z,96810.78
2023-03-07T19:01:10.588Z,96812.44
2023-03-07T19:03:37.256Z,96821.94
2023-03-07T19:06:03.959Z,96824.19
2023-03-07T19:08:30.789Z,96828.44
2023-03-07T19:10:57.455Z,96828.56
2023-03-07T19:13:24.072Z,96821.56
2023-03-07T19:15:50.664Z,96822.03
2023-03-07T19:18:17.250Z,96830.41
2023-03-07T19:20:43.862Z,96829.44
2023-03-07T19:23:10.433Z,96832.56
2023-03-07T19:25:37.109Z,96822.81
2023-03-07T19:28:03.690Z,96827.97
2023-03-07T19:30:32.951Z,96829.72
2023-03-07T19:32:59.587Z,96825.97
2023-03-07T19:35:26.195Z,96823.81
2023-03-07T19:37:52.785Z,96827.59
2023-03-07T19:40:19.477Z,96829.97
2023-03-07T19:42:47.381Z,96831.94
2023-03-07T19:45:13.965Z,96832.94
2023-03-07T19:47:40.543Z,96825.63
2023-03-07T19:50:07.652Z,96828.94
2023-03-07T19:52:34.278Z,96826.44
2023-03-07T19:55:00.823Z,96841.09
2023-03-07T19:57:27.425Z,96848.94
2023-03-07T19:59:54.312Z,96849.53
2023-03-07T20:02:22.276Z,96852.69
2023-03-07T20:04:49.754Z,96849.81
2023-03-07T20:07:16.523Z,96851.31
2023-03-07T20:09:43.121Z,96860.78
2023-03-07T20:12:10.277Z,96850.38
2023-03-07T20:14:42.636Z,96859.63
2023-03-07T20:17:11.144Z,96862.47
2023-03-07T20:19:38.564Z,96856.41
2023-03-07T20:22:05.811Z,96862.81
2023-03-07T20:24:33.290Z,96867.94
2023-03-07T20:27:00.410Z,96875.44
2023-03-07T20:29:36.816Z,96868.28
2023-03-07T20:32:20.385Z,96858.16
2023-03-07T20:35:09.893Z,96865.56
2023-03-07T20:37:53.349Z,96866.66
2023-03-07T20:40:21.453Z,96877.41
2023-03-07T20:43:08.976Z,96883.53
2023-03-07T20:45:38.784Z,96887.88
2023-03-07T20:48:05.364Z,96887.75
2023-03-07T20:50:46.843Z,96893.09
2023-03-07T20:53:30.813Z,96898.84
2023-03-07T20:56:03.277Z,96901.91
2023-03-07T20:58:30.920Z,96910.22
2023-03-07T21:01:04.615Z,96919.34
2023-03-07T21:03:31.256Z,96927.38
2023-03-07T21:06:00.486Z,96923.41
2023-03-07T21:08:29.319Z,96932.16
2023-03-07T21:11:19.727Z,96930.03
2023-03-07T21:13:54.909Z,96941.53
2023-03-07T21:16:34.115Z,96943.50
2023-03-07T21:19:21.109Z,96950.03
2023-03-07T21:22:02.064Z,96957.25
2023-03-07T21:24:46.761Z,96946.88
2023-03-07T21:27:31.932Z,96953.59
2023-03-07T21:30:14.043Z,96955.06
2023-03-07T21:32:49.080Z,96968.09
2023-03-07T21:35:26.760Z,96970.94
2023-03-07T21:37:53.414Z,96973.09
2023-03-07T21:40:21.672Z,96978.22
2023-03-07T21:42:48.278Z,96981.34
2023-03-07T21:45:15.090Z,96986.53
2023-03-07T21:47:41.690Z,96983.25
2023-03-07T21:50:09.021Z,96988.28
2023-03-07T21:52:35.605Z,96985.06
2023-03-07T21:55:02.210Z,96987.13
2023-03-07T21:57:29.468Z,96995.41
2023-03-07T21:59:56.075Z,96993.97
2023-03-07T22:02:23.082Z,96994.84
2023-03-07T22:04:50.611Z,96993.22
2023-03-07T22:07:17.257Z,96998.31
2023-03-07T22:09:43.865Z,96996.84
2023-03-07T22:12:10.434Z,97000.94
2023-03-07T22:14:37.062Z,96999.91
2023-03-07T22:17:03.699Z,96997.38
2023-03-07T22:19:30.299Z,96999.19
2023-03-07T22:21:56.913Z,97003.84
2023-03-07T22:24:23.534Z,96999.84
2023-03-07T22:26:50.162Z,97006.31
2023-03-07T22:29:16.790Z,97004.34
2023-03-07T22:31:43.445Z,97010.00
2023-03-07T22:34:10.069Z,97008.19
2023-03-07T22:36:36.708Z,97016.47
2023-03-07T22:39:03.723Z,97015.03
2023-03-07T22:41:48.633Z,97017.50
2023-03-07T22:44:30.480Z,97012.41
2023-03-07T22:47:14.184Z,97023.47
2023-03-07T22:49:58.574Z,97019.63
2023-03-07T22:52:25.452Z,97018.84
2023-03-07T22:54:54.258Z,97020.41
2023-03-07T22:57:26.380Z,97014.97
2023-03-07T23:00:09.060Z,97028.44
2023-03-07T23:02:48.851Z,97026.41
2023-03-07T23:05:31.602Z,97030.03
2023-03-07T23:08:11.346Z,97037.69
2023-03-07T23:10:59.552Z,97032.00
2023-03-07T23:13:38.247Z,97039.06
2023-03-07T23:16:24.652Z,97041.84
2023-03-07T23:19:09.356Z,97046.38
2023-03-07T23:21:51.084Z,97031.59
2023-03-07T23:24:34.001Z,97036.00
2023-03-07T23:27:15.789Z,97039.47
2023-03-07T23:29:51.919Z,97049.94
2023-03-07T23:32:36.268Z,97053.34
2023-03-07T23:35:20.568Z,97050.16
2023-03-07T23:38:04.416Z,97047.94
2023-03-07T23:40:55.513Z,97051.63
2023-03-07T23:43:34.293Z,97047.59
2023-03-07T23:46:13.362Z,97049.78
2023-03-07T23:48:59.821Z,97065.72
2023-03-07T23:51:46.707Z,97061.06
2023-03-07T23:54:30.472Z,97057.41
2023-03-07T23:57:13.890Z,97061.06
2023-03-07T23:59:52.587Z,97056.84
